Time;durP1;ratioP1;P1;durP2;ratioP2;P2;SDS_P1;SDS_P2;PMS_P1;PMS_P2;Temp;Humidity;BMP_temperature;BMP_pressure;BME280_temperature;BME280_humidity;BME280_pressure;Samples;Min_cycle;Max_cycle;Signal;HPM_P1;HPM_P2
2021/12/16 00:02:31;;;;;;;303.15;232.90;;;20.60;46.80;;;;;;4748802;55;21030;-39
2021/12/16 00:07:44;;;;;;;309.30;236.57;;;20.60;46.80;;;;;;4749260;55;21516;-39
2021/12/16 00:40:34;;;;;;;302.67;231.10;;;20.50;46.70;;;;;;4749134;58;21061;-39
2021/12/16 00:45:55;;;;;;;299.10;229.40;;;20.50;46.60;;;;;;4798299;55;21105;-39
2021/12/16 00:56:18;;;;;;;292.48;222.18;;;20.50;46.50;;;;;;4968902;54;21041;-39
2021/12/16 01:02:18;;;;;;;292.10;221.23;;;20.50;46.50;;;;;;4837891;55;21469;-38
2021/12/16 01:34:14;;;;;;;285.48;209.15;;;20.50;46.40;;;;;;4764506;55;21572;-39
2021/12/16 01:48:06;;;;;;;283.70;212.20;;;20.40;46.30;;;;;;4873371;54;21038;-39
2021/12/16 02:01:43;;;;;;;277.98;212.30;;;20.40;46.30;;;;;;5234089;55;21544;-39
2021/12/16 02:07:23;;;;;;;286.75;216.43;;;20.40;46.30;;;;;;4777467;55;21004;-38
2021/12/16 02:38:07;;;;;;;277.73;205.02;;;20.40;46.20;;;;;;4781804;55;21029;-38
2021/12/16 02:43:28;;;;;;;275.13;203.93;;;20.40;46.20;;;;;;4821343;55;21535;-39
2021/12/16 02:48:34;;;;;;;275.25;205.80;;;20.40;46.20;;;;;;4996682;55;21582;-34
2021/12/16 02:53:39;;;;;;;270.55;200.15;;;20.40;46.20;;;;;;4799610;55;21552;-37
2021/12/16 02:58:48;;;;;;;269.00;201.23;;;20.40;46.10;;;;;;4748437;55;21046;-39
2021/12/16 03:03:48;;;;;;;274.62;202.32;;;20.40;46.10;;;;;;5014602;55;21005;-38
2021/12/16 03:08:50;;;;;;;270.75;202.80;;;20.30;46.00;;;;;;4790873;55;20997;-38
2021/12/16 03:21:12;;;;;;;257.48;190.35;;;20.30;46.10;;;;;;5234337;55;21090;-40
2021/12/16 03:40:23;;;;;;;269.20;196.90;;;20.30;46.60;;;;;;4782988;55;21060;-38
2021/12/16 03:51:15;;;;;;;251.25;184.18;;;20.30;45.90;;;;;;4747340;58;21078;-38
2021/12/16 03:56:17;;;;;;;249.18;181.55;;;20.30;45.90;;;;;;4794081;55;21025;-38
2021/12/16 04:01:24;;;;;;;257.87;191.07;;;20.30;46.00;;;;;;4841418;55;20990;-38
2021/12/16 04:06:28;;;;;;;257.62;187.00;;;20.30;45.90;;;;;;4873500;55;21061;-38
2021/12/16 04:11:39;;;;;;;260.92;189.35;;;20.30;45.90;;;;;;4970766;55;20994;-39
2021/12/16 04:16:53;;;;;;;259.55;189.00;;;20.30;45.90;;;;;;4748202;58;21528;-40
2021/12/16 04:22:18;;;;;;;258.05;189.07;;;20.30;45.90;;;;;;4894643;55;21076;-39
2021/12/16 04:27:20;;;;;;;247.90;182.45;;;20.30;45.80;;;;;;4765806;54;21101;-39
2021/12/16 04:32:21;;;;;;;255.15;185.20;;;20.30;45.80;;;;;;4994154;55;21073;-39
2021/12/16 04:37:22;;;;;;;255.52;187.68;;;20.30;45.80;;;;;;4833939;55;21045;-38
2021/12/16 04:42:25;;;;;;;254.02;181.63;;;20.30;45.80;;;;;;4812173;55;21120;-39
2021/12/16 04:47:29;;;;;;;250.27;178.95;;;20.30;45.80;;;;;;4861131;55;21556;-38
2021/12/16 04:52:30;;;;;;;233.40;165.62;;;20.30;45.80;;;;;;4787061;55;21468;-38
2021/12/16 04:57:31;;;;;;;254.18;177.05;;;20.30;45.80;;;;;;4882517;55;20998;-39
2021/12/16 05:02:32;;;;;;;249.85;180.27;;;20.30;45.80;;;;;;5195895;55;20990;-38
2021/12/16 05:07:34;;;;;;;252.18;178.90;;;20.20;45.80;;;;;;4920538;55;21064;-38
2021/12/16 05:12:39;;;;;;;243.40;172.30;;;20.20;45.80;;;;;;4908003;55;21013;-39
2021/12/16 05:17:46;;;;;;;248.57;178.95;;;20.20;45.80;;;;;;4986128;55;21464;-39
2021/12/16 05:28:09;;;;;;;240.43;171.68;;;20.20;45.90;;;;;;4747418;55;21038;-39
2021/12/16 05:33:11;;;;;;;236.02;163.95;;;20.20;46.00;;;;;;4803151;55;21053;-38
2021/12/16 05:38:13;;;;;;;239.20;169.85;;;20.30;46.00;;;;;;4804794;55;21523;-38
2021/12/16 05:43:16;;;;;;;228.25;161.25;;;20.20;46.00;;;;;;5234586;55;21053;-38
2021/12/16 05:48:22;;;;;;;235.77;169.77;;;20.20;46.10;;;;;;4748606;58;21057;-37
2021/12/16 05:53:23;;;;;;;233.35;167.73;;;20.20;46.20;;;;;;5179683;55;21006;-38
2021/12/16 05:58:25;;;;;;;219.25;154.07;;;20.20;46.30;;;;;;4748410;58;21032;-39
2021/12/16 06:03:27;;;;;;;227.70;157.85;;;20.20;46.30;;;;;;4950283;55;21138;-39
2021/12/16 06:08:28;;;;;;;237.32;167.73;;;20.20;46.30;;;;;;4748702;55;21130;-40
2021/12/16 06:13:34;;;;;;;227.48;161.12;;;20.20;46.30;;;;;;5074989;55;21006;-40
2021/12/16 06:29:15;;;;;;;224.90;159.60;;;20.20;46.40;;;;;;4747091;55;21185;-38
2021/12/16 06:34:16;;;;;;;232.45;164.15;;;20.20;46.50;;;;;;4774040;55;20990;-38
2021/12/16 06:39:17;;;;;;;220.98;159.73;;;20.20;46.40;;;;;;4748675;58;21022;-38
2021/12/16 06:44:23;;;;;;;217.00;149.98;;;20.20;46.40;;;;;;4748521;58;21002;-39
2021/12/16 06:49:25;;;;;;;224.23;156.70;;;20.20;46.50;;;;;;4885945;55;21519;-39
2021/12/16 06:54:39;;;;;;;222.63;157.40;;;20.20;46.50;;;;;;4749835;55;21459;-39
2021/12/16 06:59:51;;;;;;;236.55;152.05;;;20.20;46.40;;;;;;4787150;55;21472;-42
2021/12/16 07:04:52;;;;;;;236.82;161.20;;;20.10;45.90;;;;;;4837023;55;21480;-37
2021/12/16 07:09:53;;;;;;;221.55;153.43;;;20.20;46.10;;;;;;4747995;58;21022;-38
2021/12/16 07:14:54;;;;;;;220.75;154.63;;;20.20;46.10;;;;;;4813599;55;21102;-41
2021/12/16 07:19:54;;;;;;;228.93;158.00;;;20.20;46.10;;;;;;4942171;54;21014;-40
2021/12/16 07:24:55;;;;;;;232.82;158.98;;;20.20;46.00;;;;;;4939555;54;21029;-40
2021/12/16 07:29:56;;;;;;;217.75;152.43;;;20.30;46.10;;;;;;4824869;55;21559;-40
2021/12/16 07:34:57;;;;;;;225.57;154.50;;;20.30;45.90;;;;;;4840884;55;20982;-41
2021/12/16 07:40:00;;;;;;;219.37;150.32;;;20.30;46.00;;;;;;4807266;54;21038;-42
2021/12/16 07:45:00;;;;;;;222.93;153.93;;;20.30;45.90;;;;;;4803692;55;21539;-41
2021/12/16 07:50:02;;;;;;;220.32;151.00;;;20.30;45.90;;;;;;4852655;54;21017;-40
2021/12/16 07:55:04;;;;;;;219.05;154.40;;;20.30;46.60;;;;;;4925124;55;21468;-42
2021/12/16 08:00:14;;;;;;;226.07;156.73;;;20.30;45.90;;;;;;5054546;55;21026;-40
2021/12/16 08:05:19;;;;;;;213.60;148.18;;;20.30;45.80;;;;;;4747654;58;21013;-38
2021/12/16 08:10:23;;;;;;;220.48;152.62;;;20.30;45.80;;;;;;4774983;55;21073;-46
2021/12/16 08:15:24;;;;;;;222.73;152.23;;;20.30;46.20;;;;;;4999909;55;21196;-37
2021/12/16 08:20:25;;;;;;;218.37;150.00;;;20.40;46.80;;;;;;4754511;55;21053;-38
2021/12/16 08:25:28;;;;;;;214.93;146.48;;;20.40;47.30;;;;;;4998302;54;21037;-39
2021/12/16 08:30:32;;;;;;;214.18;145.30;;;20.40;47.70;;;;;;4761862;55;21014;-40
2021/12/16 08:35:33;;;;;;;213.68;146.43;;;20.40;47.70;;;;;;4790519;55;21034;-38
2021/12/16 08:40:35;;;;;;;213.37;149.00;;;20.40;48.00;;;;;;4958641;55;21464;-37
2021/12/16 08:45:36;;;;;;;216.77;148.38;;;20.50;48.40;;;;;;4747414;58;21057;-34
2021/12/16 08:50:41;;;;;;;205.05;143.20;;;20.50;48.60;;;;;;4747356;58;21002;-37
2021/12/16 08:55:44;;;;;;;210.45;146.60;;;20.60;48.50;;;;;;4815632;55;20986;-39
2021/12/16 09:00:52;;;;;;;214.82;148.93;;;20.70;48.40;;;;;;4753810;55;21125;-39
2021/12/16 09:05:54;;;;;;;217.10;152.55;;;20.90;48.40;;;;;;4747946;58;21057;-38
2021/12/16 09:10:55;;;;;;;229.90;159.85;;;20.90;48.30;;;;;;4747633;58;21030;-36
2021/12/16 09:16:00;;;;;;;225.77;154.27;;;21.00;48.10;;;;;;4777143;55;20978;-48
2021/12/16 09:21:04;;;;;;;222.50;159.35;;;21.00;47.90;;;;;;4839387;55;21001;-37
2021/12/16 09:26:05;;;;;;;219.48;153.00;;;21.10;47.90;;;;;;4809860;55;21073;-39
2021/12/16 09:31:12;;;;;;;218.18;157.23;;;21.10;47.90;;;;;;4780575;55;21006;-40
2021/12/16 09:36:15;;;;;;;223.00;156.80;;;21.20;47.90;;;;;;4794931;55;21563;-38
2021/12/16 09:41:20;;;;;;;216.00;154.55;;;21.20;47.90;;;;;;4813833;55;20990;-36
2021/12/16 09:46:24;;;;;;;223.87;158.57;;;21.30;48.00;;;;;;4769298;55;21052;-37
2021/12/16 09:51:29;;;;;;;220.93;154.57;;;21.30;47.90;;;;;;4902449;55;21054;-37
2021/12/16 09:56:30;;;;;;;226.45;162.52;;;21.40;48.00;;;;;;4761603;55;21124;-37
2021/12/16 10:01:32;;;;;;;226.02;162.20;;;21.40;48.00;;;;;;4792366;55;21072;-39
2021/12/16 10:06:36;;;;;;;232.05;166.62;;;21.40;48.00;;;;;;4748370;58;21576;-38
2021/12/16 10:11:41;;;;;;;225.40;162.52;;;21.50;48.10;;;;;;4856036;55;21412;-36
2021/12/16 10:23:56;;;;;;;227.45;160.88;;;21.70;48.50;;;;;;4747956;55;21121;-40
2021/12/16 10:28:59;;;;;;;223.68;160.70;;;21.70;48.50;;;;;;4746999;58;21463;-41
2021/12/16 10:34:05;;;;;;;221.20;159.05;;;21.80;48.70;;;;;;4924310;55;21457;-43
2021/12/16 10:39:27;;;;;;;224.82;162.98;;;21.80;48.80;;;;;;4793523;55;21064;-38
2021/12/16 10:44:30;;;;;;;235.20;166.37;;;21.80;48.80;;;;;;4811280;55;20997;-34
2021/12/16 10:49:49;;;;;;;239.38;171.62;;;21.90;48.90;;;;;;4824677;55;21060;-42
2021/12/16 10:54:50;;;;;;;237.93;172.27;;;21.90;49.00;;;;;;4807735;55;21536;-39
2021/12/16 11:00:57;;;;;;;230.75;169.07;;;22.00;49.00;;;;;;4836706;54;21070;-36
2021/12/16 11:05:58;;;;;;;232.15;166.32;;;22.00;49.10;;;;;;5033798;54;21057;-41
2021/12/16 11:11:00;;;;;;;242.87;180.07;;;22.10;49.20;;;;;;4950106;54;21021;-48
2021/12/16 11:16:02;;;;;;;242.70;178.98;;;22.00;49.20;;;;;;4801171;55;21536;-41
2021/12/16 11:21:07;;;;;;;251.73;186.98;;;22.00;49.00;;;;;;4845739;55;21550;-46
2021/12/16 11:26:15;;;;;;;247.23;183.15;;;22.00;49.00;;;;;;4763191;55;21590;-38
2021/12/16 11:31:37;;;;;;;252.57;184.98;;;22.00;49.10;;;;;;4797231;55;21090;-39
2021/12/16 11:36:45;;;;;;;246.02;186.45;;;22.10;49.20;;;;;;4838309;55;21532;-37
2021/12/16 11:41:56;;;;;;;249.40;187.50;;;22.10;49.30;;;;;;4825532;55;21138;-40
2021/12/16 11:47:20;;;;;;;254.57;188.93;;;22.20;49.40;;;;;;4800267;55;21531;-36
2021/12/16 11:52:30;;;;;;;245.43;187.18;;;22.20;49.50;;;;;;4909826;55;21547;-38
2021/12/16 11:57:38;;;;;;;252.62;190.43;;;22.20;49.60;;;;;;4747187;55;21046;-39
2021/12/16 12:03:00;;;;;;;255.85;193.70;;;22.20;49.60;;;;;;4747581;58;20997;-43
2021/12/16 12:08:21;;;;;;;261.40;197.30;;;22.30;49.70;;;;;;4747925;58;21033;-42
2021/12/16 12:13:28;;;;;;;262.73;194.50;;;22.30;49.80;;;;;;4746896;58;21672;-41
2021/12/16 12:18:47;;;;;;;;;;;22.30;49.90;;;;;;4750849;58;20986;-40
2021/12/16 12:23:52;;;;;;;270.27;203.93;;;22.30;50.00;;;;;;4773656;55;20098;-42
2021/12/16 12:28:59;;;;;;;267.37;201.02;;;22.40;49.70;;;;;;4830080;54;21097;-40
2021/12/16 12:34:00;;;;;;;279.73;210.98;;;22.30;49.50;;;;;;4819858;55;21081;-41
2021/12/16 12:39:05;;;;;;;275.15;208.70;;;22.20;49.30;;;;;;4840098;55;21012;-40
2021/12/16 12:44:06;;;;;;;287.05;214.32;;;22.20;49.20;;;;;;5061194;55;21472;-39
2021/12/16 12:49:12;;;;;;;281.83;207.70;;;22.20;49.10;;;;;;4800585;55;21034;-41
2021/12/16 12:54:21;;;;;;;278.45;207.95;;;22.20;48.90;;;;;;4748152;55;21002;-39
2021/12/16 12:59:34;;;;;;;280.25;209.00;;;22.20;48.80;;;;;;5042266;55;20998;-40
2021/12/16 13:04:46;;;;;;;282.37;208.07;;;22.20;48.60;;;;;;4748150;58;21033;-36
2021/12/16 13:09:53;;;;;;;273.60;201.25;;;22.30;48.70;;;;;;4768606;55;21018;-41
2021/12/16 13:15:03;;;;;;;286.37;210.80;;;22.30;48.80;;;;;;4750544;55;21005;-37
2021/12/16 13:35:50;;;;;;;297.83;220.35;;;22.40;49.20;;;;;;4917557;55;21508;-45
2021/12/16 13:40:51;;;;;;;286.70;217.15;;;22.50;49.40;;;;;;4929633;55;21460;-40
2021/12/16 14:03:05;;;;;;;281.02;211.52;;;22.60;49.70;;;;;;4748003;58;21078;-41
2021/12/16 14:08:25;;;;;;;285.45;215.45;;;22.60;49.80;;;;;;4857943;55;21471;-40
2021/12/16 14:14:31;;;;;;;285.88;216.82;;;22.60;49.90;;;;;;4747172;58;21451;-42
2021/12/16 14:38:59;;;;;;;280.62;212.63;;;22.70;50.20;;;;;;4881423;54;21100;-42
2021/12/16 14:51:40;;;;;;;268.98;203.37;;;22.80;50.30;;;;;;4826997;55;21094;-39
2021/12/16 14:56:41;;;;;;;270.92;205.57;;;22.80;50.40;;;;;;4747994;58;20997;-48
2021/12/16 15:01:48;;;;;;;267.37;201.98;;;22.80;50.30;;;;;;4748026;58;21002;-39
2021/12/16 15:06:55;;;;;;;;;;;22.80;50.30;;;;;;4901494;55;21516;-40
2021/12/16 15:12:08;;;;;;;;;;;22.80;50.40;;;;;;4828126;55;20308;-38
2021/12/16 15:40:32;;;;;;;266.08;201.05;;;22.90;50.50;;;;;;4747707;55;21041;-38
2021/12/16 15:45:44;;;;;;;264.08;200.00;;;22.80;50.30;;;;;;4748031;58;21559;-38
2021/12/16 15:51:04;;;;;;;285.67;217.23;;;22.80;50.30;;;;;;4841790;55;21078;-39
2021/12/16 15:56:12;;;;;;;260.95;200.05;;;22.90;50.20;;;;;;4874027;55;20985;-43
2021/12/16 16:01:21;;;;;;;268.00;199.05;;;22.80;49.90;;;;;;4797697;55;21515;-45
2021/12/16 16:06:23;;;;;;;262.83;198.62;;;22.80;49.80;;;;;;4782900;55;21006;-42
2021/12/16 16:11:27;;;;;;;267.15;198.55;;;22.80;49.70;;;;;;4804151;55;21272;-43
2021/12/16 16:16:36;;;;;;;284.48;215.73;;;22.70;49.40;;;;;;4748206;58;20985;-40
2021/12/16 16:21:40;;;;;;;279.52;207.65;;;22.60;49.40;;;;;;4748442;58;21475;-40
2021/12/16 16:26:43;;;;;;;283.55;214.43;;;22.50;49.50;;;;;;4772849;55;21598;-41
2021/12/16 16:31:45;;;;;;;275.85;207.10;;;22.40;49.60;;;;;;4924581;55;21001;-39
2021/12/16 16:36:50;;;;;;;286.50;215.93;;;22.30;49.70;;;;;;5036345;55;20986;-40
2021/12/16 16:42:00;;;;;;;282.90;218.15;;;22.30;49.80;;;;;;4801783;55;21065;-40
2021/12/16 16:47:11;;;;;;;283.67;216.00;;;22.20;49.80;;;;;;4785496;55;21100;-41
2021/12/16 16:52:16;;;;;;;287.60;216.10;;;22.10;49.90;;;;;;5092123;55;21535;-38
2021/12/16 16:57:30;;;;;;;288.48;221.70;;;22.10;49.90;;;;;;4747815;58;21460;-41
2021/12/16 17:02:48;;;;;;;298.30;221.43;;;22.00;50.00;;;;;;4823456;55;21014;-39
2021/12/16 17:07:54;;;;;;;286.10;208.13;;;21.90;50.00;;;;;;4836644;55;21032;-42
2021/12/16 17:13:09;;;;;;;296.23;227.18;;;21.90;50.00;;;;;;4747377;58;21085;-47
2021/12/16 17:18:20;;;;;;;289.12;219.95;;;21.80;50.00;;;;;;4860867;55;21025;-46
2021/12/16 17:23:25;;;;;;;285.55;215.95;;;21.80;50.10;;;;;;5007817;55;21101;-40
2021/12/16 17:28:30;;;;;;;288.73;220.15;;;21.70;50.10;;;;;;4905656;54;21110;-40
2021/12/16 17:33:34;;;;;;;295.05;230.93;;;21.70;50.10;;;;;;4930137;54;21011;-41
2021/12/16 17:38:38;;;;;;;302.20;232.18;;;21.60;50.10;;;;;;4968413;55;21484;-36
2021/12/16 17:43:43;;;;;;;300.17;226.37;;;21.60;50.20;;;;;;4804388;55;21117;-40
2021/12/16 17:48:47;;;;;;;297.10;224.25;;;21.60;50.20;;;;;;4840453;55;21495;-39
2021/12/16 17:53:59;;;;;;;300.13;229.70;;;21.60;50.20;;;;;;4747238;58;21073;-45
2021/12/16 17:59:04;;;;;;;290.98;225.93;;;21.50;50.20;;;;;;5220941;55;21507;-35
2021/12/16 18:04:14;;;;;;;304.50;231.90;;;21.50;50.20;;;;;;4975976;55;20994;-39
2021/12/16 18:09:21;;;;;;;295.88;227.38;;;21.50;50.20;;;;;;4822773;55;21517;-38
2021/12/16 18:14:32;;;;;;;304.73;233.07;;;21.40;50.20;;;;;;4748023;58;20998;-49
2021/12/16 18:20:01;;;;;;;300.13;224.57;;;21.40;50.30;;;;;;5076893;55;20994;-39
2021/12/16 18:25:13;;;;;;;309.40;238.40;;;21.40;50.30;;;;;;5162220;54;21085;-39
2021/12/16 18:30:30;;;;;;;300.98;228.80;;;21.30;50.20;;;;;;4747618;58;21034;-40
2021/12/16 18:35:38;;;;;;;;;;;21.30;50.90;;;;;;4751612;58;21010;-41
2021/12/16 18:40:42;;;;;;;292.55;219.00;;;21.30;50.20;;;;;;4836363;55;20299;-39
2021/12/16 18:45:44;;;;;;;301.08;229.25;;;21.30;50.20;;;;;;4773594;55;21057;-38
2021/12/16 18:51:18;;;;;;;299.33;226.65;;;21.20;50.20;;;;;;4932225;55;21488;-39
2021/12/16 18:56:22;;;;;;;302.40;229.82;;;21.20;50.20;;;;;;4915234;55;21488;-39
2021/12/16 19:01:31;;;;;;;295.08;227.30;;;21.20;50.20;;;;;;4957185;55;21452;-37
2021/12/16 19:06:36;;;;;;;300.58;229.35;;;21.20;50.20;;;;;;5233948;55;21013;-38
2021/12/16 19:11:45;;;;;;;299.05;233.38;;;21.20;50.20;;;;;;4753750;55;21049;-38
2021/12/16 19:16:47;;;;;;;286.55;217.57;;;21.20;50.20;;;;;;4748167;58;21659;-38
2021/12/16 19:21:49;;;;;;;296.90;225.50;;;21.10;50.10;;;;;;4773889;55;21151;-41
2021/12/16 19:26:51;;;;;;;302.58;231.15;;;21.10;50.10;;;;;;4903898;55;21551;-43
2021/12/16 19:31:53;;;;;;;310.45;237.63;;;21.10;50.10;;;;;;4758449;55;21057;-38
2021/12/16 19:36:54;;;;;;;312.10;241.27;;;21.10;50.10;;;;;;4878258;55;21069;-39
2021/12/16 19:41:55;;;;;;;295.15;226.82;;;21.10;50.10;;;;;;4748276;58;21085;-38
2021/12/16 19:46:59;;;;;;;302.62;233.52;;;21.10;50.10;;;;;;4748371;58;21062;-41
2021/12/16 19:52:00;;;;;;;312.98;240.32;;;21.10;50.10;;;;;;4835621;55;21002;-40
2021/12/16 19:57:02;;;;;;;308.65;236.20;;;21.00;50.10;;;;;;4866137;55;21006;-40
2021/12/16 20:02:04;;;;;;;305.60;236.07;;;21.00;50.10;;;;;;4917810;55;21025;-40
2021/12/16 20:07:11;;;;;;;310.55;242.62;;;21.00;50.10;;;;;;4840183;55;20982;-40
2021/12/16 20:12:23;;;;;;;313.17;235.35;;;21.00;50.10;;;;;;5031629;55;21547;-39
2021/12/16 20:17:25;;;;;;;306.45;236.65;;;21.00;50.10;;;;;;5088810;55;21037;-40
2021/12/16 20:22:31;;;;;;;296.80;229.18;;;21.00;50.10;;;;;;4779144;55;21076;-40
2021/12/16 20:27:36;;;;;;;309.27;233.07;;;21.00;50.10;;;;;;4747509;58;21025;-35
2021/12/16 20:32:44;;;;;;;292.77;223.70;;;20.90;50.00;;;;;;4808904;55;21061;-39
2021/12/16 20:37:47;;;;;;;310.92;238.62;;;21.00;50.10;;;;;;4794503;55;21053;-42
2021/12/16 20:42:52;;;;;;;305.90;237.27;;;20.90;50.00;;;;;;4855941;55;20993;-43
2021/12/16 20:47:58;;;;;;;292.87;228.98;;;20.90;50.00;;;;;;4895877;55;21049;-40
2021/12/16 20:52:59;;;;;;;297.35;232.77;;;20.90;50.00;;;;;;4853166;55;21213;-40
2021/12/16 20:58:07;;;;;;;307.30;239.40;;;20.90;50.00;;;;;;4942836;55;21013;-42
2021/12/16 21:03:10;;;;;;;302.58;231.23;;;20.90;50.00;;;;;;5027738;55;21057;-38
2021/12/16 21:08:11;;;;;;;305.80;233.55;;;20.90;50.00;;;;;;4786973;55;21065;-40
2021/12/16 21:13:15;;;;;;;296.70;227.23;;;20.90;50.00;;;;;;4814799;55;21010;-40
2021/12/16 21:18:19;;;;;;;287.80;215.32;;;20.90;50.00;;;;;;4889858;55;21507;-41
2021/12/16 21:23:22;;;;;;;303.20;235.07;;;20.80;50.60;;;;;;4851866;55;21017;-41
2021/12/16 21:28:23;;;;;;;302.13;227.55;;;20.90;50.00;;;;;;4805621;54;21037;-37
2021/12/16 21:33:27;;;;;;;280.00;211.10;;;20.80;50.00;;;;;;4747579;58;20994;-37
2021/12/16 21:38:30;;;;;;;284.83;217.00;;;20.90;50.00;;;;;;5000831;55;21484;-40
2021/12/16 21:43:31;;;;;;;287.88;221.95;;;20.80;50.00;;;;;;4797796;55;21017;-42
2021/12/16 21:48:33;;;;;;;296.77;228.77;;;20.80;50.00;;;;;;4864599;55;21061;-41
2021/12/16 21:53:35;;;;;;;299.70;227.15;;;20.80;49.90;;;;;;4747348;58;21579;-42
2021/12/16 21:58:40;;;;;;;291.70;222.80;;;20.80;49.90;;;;;;4897714;55;20998;-36
2021/12/16 22:03:46;;;;;;;284.45;221.07;;;20.80;50.00;;;;;;4937638;55;20986;-43
2021/12/16 22:08:48;;;;;;;285.17;222.63;;;20.80;49.90;;;;;;4930826;55;21061;-40
2021/12/16 22:13:51;;;;;;;295.83;227.15;;;20.80;49.90;;;;;;4837660;55;21008;-42
2021/12/16 22:18:54;;;;;;;278.42;211.62;;;20.80;49.90;;;;;;4863719;55;20994;-43
2021/12/16 22:23:56;;;;;;;285.10;218.27;;;20.80;49.90;;;;;;4756607;55;21499;-39
2021/12/16 22:28:57;;;;;;;282.52;217.60;;;20.70;49.80;;;;;;5234324;55;21472;-36
2021/12/16 22:34:06;;;;;;;278.85;216.40;;;20.70;49.80;;;;;;4950563;54;21010;-39
2021/12/16 22:39:09;;;;;;;270.75;209.02;;;20.70;49.80;;;;;;5186322;55;21460;-38
2021/12/16 22:44:10;;;;;;;270.27;206.13;;;20.70;49.80;;;;;;4793848;55;21033;-40
2021/12/16 22:49:11;;;;;;;272.92;212.77;;;20.70;49.80;;;;;;4779765;55;21532;-36
2021/12/16 22:54:15;;;;;;;268.60;210.15;;;20.70;49.70;;;;;;4927119;55;21021;-40
2021/12/16 22:59:19;;;;;;;270.70;208.32;;;20.70;49.70;;;;;;4780082;55;21455;-38
2021/12/16 23:04:20;;;;;;;269.13;209.80;;;20.70;49.70;;;;;;4989405;55;21543;-41
2021/12/16 23:09:22;;;;;;;256.98;196.07;;;20.70;49.70;;;;;;5076646;55;21017;-40
2021/12/16 23:14:23;;;;;;;264.65;203.43;;;20.70;49.70;;;;;;5139327;54;21005;-41
2021/12/16 23:24:44;;;;;;;255.50;196.18;;;20.70;49.60;;;;;;4747775;55;21062;-37
2021/12/16 23:29:45;;;;;;;248.95;193.35;;;20.70;49.70;;;;;;4851454;54;21491;-37
2021/12/16 23:34:46;;;;;;;249.75;191.18;;;20.70;49.70;;;;;;4853914;55;21057;-40
2021/12/16 23:39:47;;;;;;;253.23;198.10;;;20.60;49.60;;;;;;4895160;55;21073;-39
2021/12/16 23:46:39;;;;;;;240.35;185.32;;;20.60;49.60;;;;;;5024474;54;21049;-40
2021/12/16 23:57:00;;;;;;;232.70;177.73;;;20.60;49.60;;;;;;4747723;55;21014;-39
